Terminal Aerodrome Forecast
Issued by NWS Grand Forks, ND

Home | Current Version | Previous Version | Text Only | Print | Product List | Glossary On
Versions: 1 2 3 4 5 6 7 8 9 10 11 12 13 14 15 16 17 18 19 20 21 22 23 24 25 26 27 28 29 30 31 32 33 34 35 36
877
FTUS43 KFGF 211731
TAFFAR
TAF
KFAR 211731Z 2118/2218 34017KT 3SM -SN OVC015
     FM212300 32010KT P6SM SCT150
     FM220200 28007KT P6SM FEW250
     FM221600 19012KT P6SM SKC=

USA.gov is the U.S. government's official web portal to all federal, state and local government web resources and services.